Time;durP1;ratioP1;P1;durP2;ratioP2;P2;SDS_P1;SDS_P2;PMS_P1;PMS_P2;Temp;Humidity;BMP_temperature;BMP_pressure;BME280_temperature;BME280_humidity;BME280_pressure;Samples;Min_cycle;Max_cycle;Signal;HPM_P1;HPM_P2
2021/07/12 00:01:06;;;;;;;1.42;0.90;;;20.60;73.70;;;23.57;60.67;101385.13;4999573;28;96860;-73
2021/07/12 00:03:35;;;;;;;5.68;2.40;;;20.50;73.70;;;23.58;60.68;101383.94;5004928;28;96664;-73
2021/07/12 00:06:05;;;;;;;2.45;1.92;;;20.60;73.70;;;23.58;60.65;101384.75;5017000;27;96825;-73
2021/07/12 00:08:33;;;;;;;11.10;2.85;;;20.60;73.80;;;23.58;60.50;101378.47;5001899;28;98131;-73
2021/07/12 00:11:04;;;;;;;7.03;2.05;;;20.50;73.80;;;23.58;60.40;101382.03;5033722;27;98347;-73
2021/07/12 00:13:32;;;;;;;10.32;2.45;;;20.50;73.80;;;23.52;60.65;101379.97;4997562;28;96842;-74
2021/07/12 00:16:04;;;;;;;2.47;1.98;;;20.50;73.80;;;23.55;60.79;101373.75;5000379;28;96937;-73
2021/07/12 00:18:33;;;;;;;1.30;1.13;;;20.50;73.80;;;23.56;60.51;101375.34;5008785;28;97378;-74
2021/07/12 00:21:04;;;;;;;7.25;3.42;;;20.50;73.90;;;23.54;60.82;101370.22;5007879;28;97688;-73
2021/07/12 00:23:33;;;;;;;5.53;3.25;;;20.50;73.90;;;23.52;60.52;101363.56;5003493;28;97004;-73
2021/07/12 00:26:05;;;;;;;2.63;2.13;;;20.50;73.90;;;23.51;60.39;101365.50;5002284;28;96990;-73
2021/07/12 00:28:34;;;;;;;1.37;1.17;;;20.50;73.90;;;23.52;60.69;101371.78;5014619;27;96890;-73
2021/07/12 00:31:06;;;;;;;9.15;2.63;;;20.50;73.90;;;23.46;60.82;101365.06;5001605;28;97218;-73
2021/07/12 00:33:35;;;;;;;2.38;2.08;;;20.50;73.90;;;23.40;60.94;101352.84;5002068;28;96878;-73
2021/07/12 00:36:05;;;;;;;2.58;1.80;;;20.40;73.80;;;23.39;60.79;101343.06;5015411;28;98075;-73
2021/07/12 00:38:35;;;;;;;7.63;1.80;;;20.40;73.90;;;23.41;60.79;101338.81;4999440;28;97754;-73
2021/07/12 00:41:06;;;;;;;6.57;2.83;;;20.40;73.90;;;23.47;60.56;101333.81;4994718;28;96850;-73
2021/07/12 00:43:35;;;;;;;1.92;1.80;;;20.40;73.90;;;23.43;60.56;101332.97;5019481;27;97152;-74
2021/07/12 00:46:07;;;;;;;5.55;2.50;;;20.40;73.90;;;23.37;60.93;101328.97;5033461;27;98110;-73
2021/07/12 00:48:37;;;;;;;3.78;1.58;;;20.40;74.00;;;23.27;60.93;101335.13;5015574;27;96952;-73
2021/07/12 00:51:09;;;;;;;3.85;1.90;;;20.30;73.90;;;23.28;60.85;101331.22;4999823;28;97221;-73
2021/07/12 00:53:39;;;;;;;3.42;2.35;;;20.30;73.90;;;23.21;61.10;101337.38;5001401;28;96773;-73
2021/07/12 00:56:10;;;;;;;9.60;2.42;;;20.30;74.00;;;23.12;61.11;101339.63;5019651;27;96925;-74
2021/07/12 00:58:39;;;;;;;3.28;2.40;;;20.30;74.00;;;23.06;61.31;101346.53;4999985;28;96777;-73
2021/07/12 01:01:08;;;;;;;1.42;1.35;;;20.20;74.00;;;23.04;61.36;101353.53;5017035;28;96820;-74
2021/07/12 01:03:37;;;;;;;3.05;2.17;;;20.10;74.00;;;23.00;61.30;101336.28;4995581;28;96941;-74
2021/07/12 01:06:07;;;;;;;3.67;2.63;;;20.10;74.10;;;22.96;61.48;101330.00;4992201;28;97086;-74
2021/07/12 01:08:36;;;;;;;7.43;3.15;;;20.10;74.20;;;22.97;61.43;101334.31;4998504;28;97716;-74
2021/07/12 01:11:25;;;;;;;3.17;1.92;;;20.00;74.20;;;22.90;61.27;101334.22;5003986;28;97063;-74
2021/07/12 01:14:07;;;;;;;4.38;2.47;;;19.90;74.20;;;22.80;61.31;101329.34;4998898;28;97064;-75
2021/07/12 01:16:59;;;;;;;1.75;1.65;;;19.90;74.20;;;22.74;61.62;101342.56;5000343;28;96899;-74
2021/07/12 01:20:23;;;;;;;7.65;2.22;;;19.80;74.30;;;22.71;61.25;101339.78;5014174;27;97611;-74
2021/07/12 01:23:20;;;;;;;2.72;2.53;;;19.80;74.50;;;22.71;61.34;101331.56;5000178;28;96989;-74
2021/07/12 01:27:33;;;;;;;3.58;2.30;;;19.80;74.60;;;22.71;61.50;101328.84;5001463;28;97357;-74
2021/07/12 01:30:12;;;;;;;2.58;1.65;;;19.70;74.60;;;22.74;61.16;101325.38;4998084;28;97879;-74
2021/07/12 01:33:12;;;;;;;1.67;1.58;;;19.70;74.50;;;22.73;61.23;101323.81;4987448;28;97209;-74
2021/07/12 01:36:00;;;;;;;2.60;2.40;;;19.70;74.60;;;22.79;60.90;101319.59;4999070;28;96953;-74
2021/07/12 01:38:46;;;;;;;5.70;3.40;;;19.70;74.60;;;22.78;61.05;101312.53;5020173;27;97485;-73
2021/07/12 01:41:29;;;;;;;10.65;3.25;;;19.70;74.60;;;22.82;60.85;101308.72;5002140;28;98872;-74
2021/07/12 01:44:06;;;;;;;1.50;1.27;;;19.70;74.60;;;22.80;61.05;101307.50;4999658;28;99040;-74
2021/07/12 01:46:49;;;;;;;2.60;1.83;;;19.70;74.50;;;22.79;60.91;101303.19;5014377;27;96977;-74
2021/07/12 01:49:31;;;;;;;4.78;3.28;;;19.70;74.50;;;22.79;61.07;101295.78;4997716;28;97490;-74
2021/07/12 01:52:15;;;;;;;6.68;1.92;;;19.70;74.60;;;22.87;61.29;101291.22;5017132;28;98047;-74
2021/07/12 01:55:00;;;;;;;4.53;2.50;;;19.70;74.60;;;22.82;61.01;101286.84;5002492;28;99409;-74
2021/07/12 01:57:50;;;;;;;3.55;2.28;;;19.70;74.60;;;22.86;61.03;101292.38;5017457;27;97266;-74
2021/07/12 02:00:22;;;;;;;2.17;1.25;;;19.70;74.50;;;22.87;60.60;101283.78;4990121;28;96748;-73
2021/07/12 02:02:59;;;;;;;4.35;2.78;;;19.80;74.60;;;22.89;61.06;101291.63;4999398;28;97223;-74
2021/07/12 02:05:41;;;;;;;4.63;1.88;;;19.80;74.50;;;22.92;60.75;101280.72;5032092;27;97385;-74
2021/07/12 02:08:19;;;;;;;1.52;1.42;;;19.80;74.60;;;22.90;60.69;101280.31;5035286;27;97485;-74
2021/07/12 02:10:54;;;;;;;4.00;1.45;;;19.80;74.50;;;22.89;60.90;101280.69;5015183;27;96934;-74
2021/07/12 02:13:31;;;;;;;2.13;1.60;;;19.80;74.60;;;22.94;60.78;101278.41;4999877;28;97911;-74
2021/07/12 02:16:07;;;;;;;5.53;2.03;;;19.80;74.50;;;22.96;60.70;101275.31;5004790;28;96880;-74
2021/07/12 02:18:40;;;;;;;4.28;1.88;;;19.80;74.50;;;22.87;60.58;101283.03;5017881;27;96871;-74
2021/07/12 02:21:23;;;;;;;6.60;2.65;;;19.90;74.60;;;22.93;60.75;101281.53;5000572;28;97016;-74
2021/07/12 02:24:03;;;;;;;9.50;2.35;;;19.80;74.50;;;22.90;60.98;101276.81;4985008;28;96985;-74
2021/07/12 02:26:35;;;;;;;2.55;2.13;;;19.80;74.50;;;22.86;61.19;101263.09;5016187;28;97762;-74
2021/07/12 02:29:07;;;;;;;2.58;1.52;;;19.80;74.50;;;22.87;60.92;101261.16;5029399;27;96813;-74
2021/07/12 02:31:39;;;;;;;20.90;2.43;;;19.80;74.50;;;22.87;61.02;101261.94;4997833;28;97331;-75
2021/07/12 02:34:12;;;;;;;4.05;1.33;;;19.80;74.50;;;22.88;61.02;101268.97;5033362;27;98056;-74
2021/07/12 02:36:46;;;;;;;;;;;19.80;74.60;;;22.85;60.49;101258.00;5006996;28;97714;-74
2021/07/12 02:39:34;;;;;;;3.85;2.70;;;19.80;74.70;;;22.86;60.72;101260.34;5018411;28;96879;-74
2021/07/12 02:42:09;;;;;;;5.32;2.75;;;19.80;74.60;;;22.86;60.60;101248.66;5006088;28;97263;-75
2021/07/12 02:44:47;;;;;;;5.65;2.53;;;19.70;74.60;;;22.87;61.01;101255.69;4983179;28;96907;-74
2021/07/12 02:47:17;;;;;;;3.55;2.08;;;19.70;74.60;;;22.87;61.08;101250.22;4996985;28;97820;-75
2021/07/12 02:49:48;;;;;;;2.75;2.55;;;19.70;74.60;;;22.90;61.09;101263.16;5000534;28;96770;-74
2021/07/12 02:52:27;;;;;;;2.63;2.33;;;19.70;74.60;;;22.85;60.54;101264.25;5000846;28;96952;-74
2021/07/12 02:55:04;;;;;;;4.13;3.60;;;19.70;74.60;;;22.82;61.13;101264.22;4999576;28;97935;-74
2021/07/12 02:57:34;;;;;;;1.83;1.42;;;19.70;74.60;;;22.80;61.28;101266.50;4989431;28;97892;-74
2021/07/12 03:00:10;;;;;;;2.15;2.05;;;19.70;74.60;;;22.75;61.29;101264.09;5016538;27;96862;-74
2021/07/12 03:02:41;;;;;;;5.43;1.38;;;19.70;74.70;;;22.74;61.15;101259.78;4984232;28;97244;-74
2021/07/12 03:05:14;;;;;;;2.83;1.73;;;19.70;74.70;;;22.73;61.02;101263.69;4995150;28;97106;-74
2021/07/12 03:07:58;;;;;;;6.97;2.00;;;19.70;74.80;;;22.73;60.58;101256.28;4996567;28;97924;-74
2021/07/12 03:10:33;;;;;;;4.10;2.53;;;19.60;74.80;;;22.67;61.03;101251.50;4999253;28;97344;-74
2021/07/12 03:13:16;;;;;;;3.55;2.65;;;19.60;74.80;;;22.65;61.14;101251.88;4998718;28;97108;-74
2021/07/12 03:15:50;;;;;;;5.05;4.10;;;19.60;74.80;;;22.67;61.45;101244.13;5018003;27;97804;-74
2021/07/12 03:18:28;;;;;;;4.95;2.80;;;19.60;74.80;;;22.69;61.29;101251.94;5027725;27;96698;-74
2021/07/12 03:21:04;;;;;;;4.68;3.00;;;19.60;74.80;;;22.70;61.00;101261.69;5014457;27;97360;-74
2021/07/12 03:23:42;;;;;;;4.15;3.38;;;19.60;74.90;;;22.70;61.37;101259.78;4997278;28;96927;-74
2021/07/12 03:26:15;;;;;;;1.45;1.35;;;19.60;74.90;;;22.72;61.07;101257.44;5015116;28;97859;-74
2021/07/12 03:28:45;;;;;;;2.35;1.77;;;19.60;74.90;;;22.81;60.91;101257.16;5030554;27;97519;-74
2021/07/12 03:31:18;;;;;;;18.75;2.65;;;19.60;74.90;;;22.71;61.14;101260.53;4987201;28;96828;-74
2021/07/12 03:33:49;;;;;;;7.03;3.10;;;19.60;74.80;;;22.67;61.06;101252.31;4999842;28;97226;-74
2021/07/12 03:36:19;;;;;;;3.88;0.95;;;19.60;74.80;;;22.64;61.45;101246.78;4998509;28;96834;-74
2021/07/12 03:38:52;;;;;;;4.57;2.88;;;19.50;74.80;;;22.63;61.43;101245.22;4990914;28;97497;-75
2021/07/12 03:41:21;;;;;;;5.85;3.10;;;19.50;74.90;;;22.65;61.61;101251.09;5001098;28;96775;-75
2021/07/12 03:43:51;;;;;;;5.70;2.83;;;19.50;74.90;;;22.66;61.34;101247.97;5006805;28;96797;-74
2021/07/12 03:46:19;;;;;;;5.13;2.35;;;19.50;74.90;;;22.63;61.27;101251.44;5007183;28;97887;-75
2021/07/12 03:48:49;;;;;;;6.38;2.70;;;19.50;75.00;;;22.65;60.91;101251.88;5020212;27;97704;-74
2021/07/12 03:51:27;;;;;;;7.13;2.15;;;19.60;75.00;;;22.64;61.44;101249.53;4999942;28;97058;-75
2021/07/12 03:54:06;;;;;;;2.15;1.88;;;19.50;75.00;;;22.64;60.71;101250.28;5000646;28;97849;-74
2021/07/12 03:56:36;;;;;;;5.07;2.72;;;19.50;74.90;;;22.69;60.90;101247.25;5036536;27;97949;-74
2021/07/12 03:59:04;;;;;;;3.42;3.13;;;19.50;75.00;;;22.77;60.86;101245.38;5025417;27;97971;-74
2021/07/12 04:01:33;;;;;;;5.03;2.80;;;19.50;75.00;;;22.83;60.72;101249.41;5033748;27;97414;-74
2021/07/12 04:04:05;;;;;;;4.45;2.05;;;19.50;74.90;;;22.89;60.59;101247.91;5004212;28;97521;-74
2021/07/12 04:06:34;;;;;;;4.03;2.97;;;19.60;75.00;;;22.91;60.45;101240.91;5002088;28;98481;-74
2021/07/12 04:09:04;;;;;;;4.45;2.42;;;19.60;75.00;;;22.96;60.10;101243.28;4999598;28;97249;-74
2021/07/12 04:11:34;;;;;;;2.55;1.75;;;19.60;74.90;;;23.04;60.08;101234.03;5002569;28;97343;-74
2021/07/12 04:14:05;;;;;;;7.05;3.45;;;19.70;75.00;;;23.10;60.53;101231.75;5031043;27;97209;-74
2021/07/12 04:16:34;;;;;;;3.45;2.60;;;19.70;74.90;;;23.15;60.07;101228.72;5002019;28;96985;-74
2021/07/12 04:19:04;;;;;;;7.78;3.83;;;19.70;74.90;;;23.17;60.41;101227.19;5021388;27;96799;-74
2021/07/12 04:21:33;;;;;;;7.60;3.55;;;19.80;74.90;;;23.19;60.11;101224.09;5001276;28;96965;-74
2021/07/12 04:24:04;;;;;;;7.28;4.55;;;19.80;74.80;;;23.23;60.03;101224.91;5016497;27;97729;-74
2021/07/12 04:26:34;;;;;;;3.05;2.80;;;19.80;74.70;;;23.18;60.10;101222.50;4999911;28;97899;-74
2021/07/12 04:29:06;;;;;;;3.47;2.63;;;19.80;74.70;;;23.17;60.61;101229.13;4998789;28;97528;-74
2021/07/12 04:31:35;;;;;;;7.10;3.28;;;19.90;74.70;;;23.26;60.13;101229.63;5002144;28;97159;-74
2021/07/12 04:34:04;;;;;;;3.53;2.20;;;19.90;74.70;;;23.27;60.24;101226.53;5031894;27;96894;-74
2021/07/12 04:36:33;;;;;;;10.27;2.47;;;20.00;74.70;;;23.32;60.09;101233.59;5001667;28;96826;-74
2021/07/12 04:39:04;;;;;;;3.35;2.10;;;20.00;74.60;;;23.39;60.19;101230.91;5004771;28;96865;-74
2021/07/12 04:41:34;;;;;;;1.80;1.65;;;20.10;74.60;;;23.45;60.19;101230.22;5007941;28;97449;-74
2021/07/12 04:44:05;;;;;;;10.95;4.15;;;20.10;74.60;;;23.55;59.75;101234.22;5018636;27;97171;-74
2021/07/12 04:46:34;;;;;;;5.25;2.95;;;20.10;74.50;;;23.60;59.80;101234.69;5006331;28;97417;-74
2021/07/12 04:49:05;;;;;;;2.97;2.30;;;20.20;74.40;;;23.64;59.78;101237.44;5005057;28;97725;-74
2021/07/12 04:51:34;;;;;;;1.67;1.30;;;20.20;74.30;;;23.66;59.56;101235.91;5000612;28;97399;-75
2021/07/12 04:54:05;;;;;;;5.32;3.47;;;20.30;74.30;;;23.79;59.37;101233.66;4998244;28;96777;-74
2021/07/12 04:56:36;;;;;;;6.30;3.33;;;20.40;74.30;;;23.78;59.70;101232.09;5016096;27;98302;-74
2021/07/12 04:59:07;;;;;;;4.40;2.88;;;20.40;74.30;;;23.75;59.57;101236.38;5002369;28;98942;-74
2021/07/12 05:01:37;;;;;;;5.00;1.98;;;20.40;74.20;;;23.71;59.70;101235.56;5003247;28;97236;-74
2021/07/12 05:04:07;;;;;;;6.97;3.60;;;20.40;74.20;;;23.69;59.47;101248.81;4998127;28;96797;-74
2021/07/12 05:06:36;;;;;;;7.20;3.75;;;20.40;74.20;;;23.66;59.91;101241.38;5000398;28;97897;-74
2021/07/12 05:09:05;;;;;;;5.22;2.20;;;20.30;74.20;;;23.76;59.71;101235.19;5013400;27;96992;-74
2021/07/12 05:11:35;;;;;;;1.35;1.02;;;20.40;74.30;;;23.86;59.53;101229.06;5003464;28;96948;-74
2021/07/12 05:14:06;;;;;;;3.85;3.10;;;20.40;74.30;;;24.07;58.66;101219.06;5002238;28;96766;-75
2021/07/12 05:16:35;;;;;;;4.22;2.58;;;20.50;74.30;;;24.38;58.10;101220.44;4999634;28;96872;-74
2021/07/12 05:19:05;;;;;;;10.55;2.95;;;20.60;74.10;;;24.78;57.63;101223.06;5000589;28;97867;-74
2021/07/12 05:21:33;;;;;;;8.52;3.55;;;20.80;73.80;;;25.15;56.58;101232.56;4998891;28;97250;-74
2021/07/12 05:24:06;;;;;;;3.35;2.20;;;21.10;73.40;;;25.42;56.35;101222.88;5005760;28;96912;-74
2021/07/12 05:26:36;;;;;;;4.13;1.88;;;21.30;73.10;;;25.44;56.45;101228.00;5003625;28;97229;-74
2021/07/12 05:29:05;;;;;;;5.35;3.20;;;21.50;72.80;;;25.72;56.42;101220.56;5001741;28;97885;-74
2021/07/12 05:31:34;;;;;;;7.32;2.55;;;21.60;72.60;;;25.77;56.29;101223.72;4999166;28;97086;-73
2021/07/12 05:34:06;;;;;;;3.38;3.08;;;21.80;72.50;;;25.86;56.33;101210.41;4998765;28;96893;-73
2021/07/12 05:36:35;;;;;;;10.30;3.20;;;22.00;72.40;;;25.98;56.38;101206.47;4999262;28;97885;-74
2021/07/12 05:39:06;;;;;;;6.35;3.83;;;22.10;72.20;;;26.23;55.95;101193.50;5015901;27;97683;-74
2021/07/12 05:41:39;;;;;;;4.88;3.03;;;22.30;72.00;;;26.60;55.33;101200.09;5020457;27;96839;-74
2021/07/12 05:44:08;;;;;;;2.75;2.55;;;22.50;71.70;;;26.72;55.40;101191.41;5001762;28;97230;-74
2021/07/12 05:46:37;;;;;;;3.33;1.92;;;22.70;71.40;;;26.86;55.39;101198.81;5004313;28;97811;-73
2021/07/12 05:49:06;;;;;;;2.90;2.50;;;22.90;71.30;;;27.14;54.54;101195.94;5000929;28;97754;-74
2021/07/12 05:51:34;;;;;;;5.75;3.40;;;23.10;71.10;;;27.22;54.76;101194.72;5034437;27;97141;-74
2021/07/12 05:54:08;;;;;;;6.22;3.72;;;23.20;70.90;;;27.15;55.25;101197.50;5032488;27;97429;-74
2021/07/12 05:56:38;;;;;;;7.85;4.20;;;23.30;70.90;;;27.05;55.49;101196.34;5001579;28;97518;-73
2021/07/12 05:59:06;;;;;;;6.50;1.85;;;23.30;71.00;;;27.02;56.07;101199.09;5000598;28;97585;-74
2021/07/12 06:01:49;;;;;;;11.73;3.08;;;23.30;71.10;;;27.09;55.95;101199.88;5003200;28;96870;-73
2021/07/12 06:04:18;;;;;;;4.43;2.15;;;23.30;71.20;;;27.26;55.88;101198.22;4999467;28;97211;-74
2021/07/12 06:06:47;;;;;;;3.58;2.72;;;23.40;71.10;;;27.53;55.15;101195.28;5015165;27;97738;-74
2021/07/12 06:09:16;;;;;;;5.40;2.00;;;23.60;71.00;;;27.89;54.46;101193.06;4981235;28;96833;-73
2021/07/12 06:11:46;;;;;;;6.97;3.15;;;23.80;70.80;;;28.72;53.01;101188.63;5000711;28;96809;-74
2021/07/12 06:14:15;;;;;;;7.95;3.10;;;24.30;70.40;;;29.04;52.71;101198.09;5002975;28;97027;-74
2021/07/12 06:16:44;;;;;;;6.80;4.13;;;24.60;69.70;;;29.30;52.37;101194.56;5014780;27;98155;-74
2021/07/12 06:19:15;;;;;;;4.38;2.67;;;24.90;69.30;;;29.48;52.44;101197.09;4997804;28;97699;-75
2021/07/12 06:21:44;;;;;;;5.70;3.88;;;25.10;69.20;;;30.10;51.52;101195.25;4982726;28;97210;-75
2021/07/12 06:24:12;;;;;;;7.20;3.10;;;25.50;69.00;;;30.77;50.42;101205.81;4999448;28;97301;-74
2021/07/12 06:26:41;;;;;;;4.53;2.53;;;26.00;68.50;;;31.89;48.65;101211.59;5012831;27;97962;-75
2021/07/12 06:29:12;;;;;;;4.65;2.58;;;26.70;68.00;;;31.77;49.42;101201.22;4999492;28;97671;-76
2021/07/12 06:31:40;;;;;;;2.85;2.22;;;27.00;67.40;;;31.25;50.89;101203.22;4994829;28;96975;-75
2021/07/12 06:34:09;;;;;;;6.13;3.40;;;26.90;67.60;;;30.94;52.04;101212.97;5001086;28;97053;-73
2021/07/12 06:36:38;;;;;;;9.75;2.97;;;26.80;68.20;;;30.61;52.84;101200.25;5017251;27;98842;-74
2021/07/12 06:39:07;;;;;;;4.07;2.65;;;26.70;68.70;;;30.51;53.16;101203.19;5006768;28;97737;-73
2021/07/12 06:41:36;;;;;;;7.07;2.92;;;26.50;68.90;;;30.73;52.67;101203.16;4998119;28;96859;-74
2021/07/12 06:44:06;;;;;;;3.90;2.13;;;26.50;69.10;;;32.57;49.14;101196.28;5000045;28;97024;-75
2021/07/12 06:46:46;;;;;;;12.27;2.03;;;27.30;68.60;;;34.95;44.96;101187.13;4981874;28;96809;-76
2021/07/12 06:49:15;;;;;;;5.72;2.03;;;28.80;66.90;;;37.01;42.15;101183.09;5013438;27;98125;-76
2021/07/12 06:51:43;;;;;;;6.20;3.88;;;30.40;65.40;;;38.55;40.73;101188.00;5016550;27;96757;-76
2021/07/12 06:54:14;;;;;;;5.47;2.63;;;31.70;64.20;;;39.86;39.80;101177.31;5014768;27;97469;-76
2021/07/12 06:56:43;;;;;;;7.88;3.28;;;33.00;63.20;;;40.59;39.93;101172.81;4994087;28;97913;-76
2021/07/12 06:59:12;;;;;;;5.93;3.00;;;33.90;62.40;;;40.91;40.49;101171.56;5001306;28;99754;-76
2021/07/12 07:01:45;;;;;;;5.28;2.33;;;34.60;62.30;;;41.74;40.13;101159.59;4997869;28;96949;-77
2021/07/12 07:04:14;;;;;;;4.25;2.80;;;35.30;62.30;;;42.81;38.79;101166.50;4995379;28;96836;-76
2021/07/12 07:06:44;;;;;;;5.18;2.95;;;36.30;61.60;;;43.19;39.54;101168.53;4999051;28;96853;-75
2021/07/12 07:09:13;;;;;;;9.02;4.50;;;36.90;61.30;;;42.14;42.07;101172.53;4999806;28;97798;-76
2021/07/12 07:11:42;;;;;;;5.78;2.20;;;36.70;61.70;;;43.30;40.75;101143.91;5001370;28;96679;-75
2021/07/12 07:14:11;;;;;;;15.07;3.58;;;37.20;61.90;;;43.40;40.52;101164.16;5001451;28;97182;-75
2021/07/12 07:16:40;;;;;;;7.43;3.50;;;37.40;61.70;;;43.32;41.22;101166.72;5014635;28;96810;-74
2021/07/12 07:19:12;;;;;;;2.45;2.25;;;37.40;61.90;;;42.40;43.46;101171.06;5000887;28;97691;-74
2021/07/12 07:21:41;;;;;;;13.35;4.22;;;37.20;62.30;;;41.76;44.68;101157.06;4994429;28;96887;-74
2021/07/12 07:24:09;;;;;;;6.47;3.15;;;36.80;63.20;;;42.79;42.14;101152.16;4981270;28;97615;-74
2021/07/12 07:26:38;;;;;;;6.93;3.47;;;37.00;63.30;;;43.49;41.02;101161.81;4996949;28;98003;-75
2021/07/12 07:29:09;;;;;;;6.05;3.10;;;37.30;63.00;;;43.61;41.52;101157.69;4998127;28;97655;-75
2021/07/12 07:31:38;;;;;;;4.82;3.15;;;37.50;62.80;;;43.69;41.28;101149.44;4997417;28;96784;-74
2021/07/12 07:34:08;;;;;;;3.65;2.17;;;37.60;62.90;;;44.85;39.62;101138.94;5003476;28;96864;-74
2021/07/12 07:36:39;;;;;;;1.92;1.33;;;38.00;62.60;;;45.81;38.36;101145.34;5014786;28;97950;-74
2021/07/12 07:39:12;;;;;;;5.65;3.05;;;38.50;62.00;;;43.98;42.50;101162.91;5016538;27;96729;-75
2021/07/12 07:41:40;;;;;;;;;;;38.40;62.30;;;41.50;47.40;101162.03;5004012;28;96829;-75
2021/07/12 07:44:11;;;;;;;3.35;2.90;;;37.60;63.00;;;39.56;50.84;101161.84;4996777;28;96956;-76
2021/07/12 07:46:39;;;;;;;3.70;2.63;;;36.50;65.00;;;38.33;52.70;101170.78;5002698;28;98243;-75
2021/07/12 07:49:08;;;;;;;6.20;3.22;;;35.50;66.20;;;37.24;54.44;101168.38;4995326;28;97588;-75
2021/07/12 07:51:41;;;;;;;9.88;2.80;;;34.60;67.10;;;36.10;56.47;101159.31;4997640;28;97848;-75
2021/07/12 07:54:09;;;;;;;2.72;2.33;;;33.70;67.90;;;35.20;57.89;101170.25;5014965;27;96763;-74
2021/07/12 07:56:39;;;;;;;4.80;3.28;;;33.00;68.80;;;34.51;58.28;101168.88;5000843;28;97064;-72
2021/07/12 07:59:08;;;;;;;7.68;2.60;;;32.20;69.10;;;34.44;57.97;101160.78;4998911;28;97757;-72
2021/07/12 08:01:37;;;;;;;3.95;2.92;;;31.70;70.00;;;34.79;55.81;101165.06;4997755;28;97320;-72
2021/07/12 08:04:08;;;;;;;6.18;3.13;;;31.40;70.30;;;35.28;54.51;101154.78;4993923;28;97000;-72
2021/07/12 08:06:38;;;;;;;2.53;2.33;;;31.30;70.20;;;35.60;53.38;101145.91;4996913;28;96913;-72
2021/07/12 08:09:07;;;;;;;4.32;2.60;;;31.40;69.90;;;37.57;48.67;101149.59;5004234;28;98792;-72
2021/07/12 08:11:36;;;;;;;8.20;3.55;;;31.60;68.90;;;37.58;47.83;101137.16;5014921;28;100741;-72
2021/07/12 08:14:06;;;;;;;4.13;1.52;;;31.90;68.30;;;38.99;44.76;101137.53;5000582;28;96964;-72
2021/07/12 08:16:35;;;;;;;4.03;2.53;;;32.10;67.70;;;39.05;44.63;101150.41;4999185;28;97887;-72
2021/07/12 08:19:07;;;;;;;3.13;1.73;;;32.50;67.30;;;38.99;45.30;101155.13;4999932;28;97464;-72
2021/07/12 08:21:38;;;;;;;;;;;32.70;66.80;;;37.64;48.77;101152.78;4995121;28;98291;-71
2021/07/12 08:24:07;;;;;;;3.05;1.73;;;32.70;66.60;;;37.38;49.00;101145.31;5035877;27;96976;-71
2021/07/12 08:26:37;;;;;;;3.35;1.63;;;32.60;67.10;;;37.46;48.59;101143.72;5002209;28;98066;-72
2021/07/12 08:29:07;;;;;;;2.72;2.00;;;32.50;67.10;;;37.44;48.77;101140.63;5001894;28;97231;-71
2021/07/12 08:31:35;;;;;;;4.47;2.22;;;32.50;67.20;;;37.81;47.78;101137.13;5000770;28;97218;-71
2021/07/12 08:34:04;;;;;;;3.67;1.88;;;32.50;67.00;;;38.80;45.33;101133.41;5003925;28;96968;-71
2021/07/12 08:36:33;;;;;;;4.25;2.00;;;32.70;66.90;;;40.73;41.36;101131.78;4997883;28;98094;-71
2021/07/12 08:39:04;;;;;;;8.07;1.85;;;33.20;66.60;;;42.92;37.85;101115.75;5005893;28;97190;-71
2021/07/12 08:41:34;;;;;;;6.82;2.88;;;33.90;65.90;;;42.83;38.77;101118.84;5004533;28;96931;-72
2021/07/12 08:44:07;;;;;;;4.78;2.00;;;34.50;65.30;;;41.23;43.03;101102.72;4998387;28;96909;-75
2021/07/12 08:46:36;;;;;;;2.53;1.20;;;34.70;65.10;;;43.22;39.13;101108.25;5017803;27;96850;-74
2021/07/12 08:49:06;;;;;;;4.38;1.25;;;34.80;65.10;;;44.47;36.79;101100.44;5003175;28;96770;-74
2021/07/12 08:51:34;;;;;;;3.80;2.58;;;35.30;64.80;;;43.70;38.55;101106.56;5001076;28;96964;-73
2021/07/12 08:54:06;;;;;;;3.05;1.80;;;35.70;64.80;;;45.02;37.44;101102.75;4996976;28;99744;-74
2021/07/12 08:56:35;;;;;;;1.83;1.30;;;36.00;64.80;;;45.01;37.83;101101.22;5000020;28;98217;-73
2021/07/12 08:59:29;;;;;;;2.35;1.77;;;36.40;64.70;;;43.55;41.08;101108.16;5002222;28;97951;-73
2021/07/12 09:02:08;;;;;;;4.32;2.55;;;36.60;65.10;;;42.72;42.65;101106.75;5000488;28;96858;-73
2021/07/12 09:04:41;;;;;;;3.92;2.42;;;36.60;64.50;;;41.38;45.65;101098.50;5003451;28;96965;-74
2021/07/12 09:07:13;;;;;;;1.08;0.80;;;36.40;64.90;;;40.84;46.49;101100.97;5002312;28;98190;-74
2021/07/12 09:09:58;;;;;;;2.33;2.13;;;36.00;65.10;;;40.91;45.92;101097.69;4983584;28;97766;-73
2021/07/12 09:12:41;;;;;;;2.72;2.03;;;35.60;65.00;;;39.65;48.45;101100.78;4998480;28;96809;-73
2021/07/12 09:15:15;;;;;;;8.13;2.42;;;35.20;65.30;;;38.81;49.14;101113.31;5002470;28;96792;-73
2021/07/12 09:17:48;;;;;;;4.95;1.98;;;34.80;65.90;;;38.37;50.08;101111.78;5016102;27;96955;-72
2021/07/12 09:20:26;;;;;;;4.32;1.65;;;34.30;66.20;;;39.35;47.75;101109.81;5014896;28;97195;-72
2021/07/12 09:22:56;;;;;;;2.75;1.83;;;34.10;66.30;;;38.38;49.43;101114.06;5001447;28;97258;-72
2021/07/12 09:25:32;;;;;;;3.40;2.15;;;33.90;66.60;;;37.79;50.48;101104.00;5004344;28;96957;-72
2021/07/12 09:28:05;;;;;;;2.88;1.67;;;33.70;66.50;;;37.58;50.60;101097.97;5000982;28;97345;-72
2021/07/12 09:30:34;;;;;;;5.75;1.73;;;33.40;66.80;;;37.24;50.42;101093.66;5000912;28;97714;-72
2021/07/12 09:33:04;;;;;;;1.15;0.77;;;33.20;66.80;;;36.80;51.58;101094.63;4998430;28;97408;-71
2021/07/12 09:35:37;;;;;;;1.27;1.15;;;33.00;66.90;;;36.67;51.23;101096.88;5033998;27;97113;-71
2021/07/12 09:38:06;;;;;;;5.53;2.60;;;32.70;67.10;;;37.40;49.35;101095.28;5016817;27;99103;-71
2021/07/12 09:40:35;;;;;;;12.43;2.13;;;32.60;66.90;;;37.61;48.90;101081.00;5002255;28;98999;-71
2021/07/12 09:43:05;;;;;;;2.60;1.73;;;32.60;66.90;;;37.78;48.59;101084.91;5003490;28;96726;-71
2021/07/12 09:45:39;;;;;;;3.40;2.38;;;32.70;66.70;;;37.86;47.71;101078.47;5000739;28;96972;-71
2021/07/12 09:48:09;;;;;;;3.55;1.83;;;32.80;66.20;;;39.13;45.17;101067.41;5001675;28;97870;-72
2021/07/12 09:50:49;;;;;;;2.72;1.23;;;32.80;66.30;;;40.59;42.33;101066.00;4999759;28;98640;-71
2021/07/12 09:53:33;;;;;;;1.50;1.40;;;33.10;66.10;;;40.80;42.61;101059.00;5005081;28;96851;-72
2021/07/12 09:56:17;;;;;;;3.38;1.73;;;33.60;66.10;;;40.43;43.87;101063.06;5039501;27;96940;-73
2021/07/12 09:58:46;;;;;;;2.88;2.03;;;33.90;65.70;;;40.57;43.90;101067.78;4996789;28;98021;-73
2021/07/12 10:01:25;;;;;;;2.00;1.33;;;34.10;65.80;;;40.50;44.01;101062.59;5001689;28;97385;-73
2021/07/12 10:03:55;;;;;;;3.38;2.25;;;34.20;65.10;;;39.86;45.43;101065.81;5003802;28;97584;-73
2021/07/12 10:06:24;;;;;;;3.25;2.25;;;34.30;65.50;;;40.01;45.30;101060.09;5004069;28;97328;-73
2021/07/12 10:08:54;;;;;;;2.92;2.20;;;34.40;65.50;;;40.07;45.71;101052.50;5001370;28;97476;-72
2021/07/12 10:11:24;;;;;;;1.35;0.93;;;34.40;65.50;;;40.25;45.41;101049.38;5002279;28;97655;-73
2021/07/12 10:13:53;;;;;;;5.93;2.67;;;34.50;65.60;;;40.66;45.02;101051.47;4998697;28;96855;-72
2021/07/12 10:16:24;;;;;;;3.55;1.73;;;34.80;65.70;;;40.84;45.18;101053.94;5000339;28;96776;-72
2021/07/12 10:18:54;;;;;;;5.28;2.92;;;35.00;65.60;;;40.57;45.68;101053.72;5001598;28;97901;-72
2021/07/12 10:21:23;;;;;;;3.92;2.70;;;35.20;65.60;;;40.10;47.02;101054.31;4997612;28;97227;-72
2021/07/12 10:23:57;;;;;;;3.03;2.75;;;35.30;65.30;;;40.02;46.63;101053.22;5004004;28;97340;-71
2021/07/12 10:26:59;;;;;;;3.88;1.58;;;35.30;65.00;;;40.47;46.22;101052.34;4999336;28;96797;-72
2021/07/12 10:29:35;;;;;;;3.15;2.03;;;35.30;64.80;;;40.26;46.56;101045.28;4996118;28;96758;-71
2021/07/12 10:32:14;;;;;;;4.80;2.65;;;35.30;65.40;;;39.77;48.17;101037.88;5009801;27;98344;-71
2021/07/12 10:34:48;;;;;;;3.88;2.53;;;35.20;65.40;;;39.43;48.68;101032.38;4999408;28;97024;-71
2021/07/12 10:37:30;;;;;;;3.00;1.98;;;35.00;65.60;;;38.99;49.35;101020.53;4995026;28;96910;-71